createdAt,value
2023-01-04T00:00:16.380Z,8.20
2023-01-04T00:02:45.425Z,8.20
2023-01-04T00:05:14.231Z,8.20
2023-01-04T00:07:42.911Z,8.20
2023-01-04T00:10:11.742Z,8.10
2023-01-04T00:12:40.690Z,8.10
2023-01-04T00:15:10.814Z,8.10
2023-01-04T00:17:40.988Z,8.10
2023-01-04T00:20:10.808Z,8.10
2023-01-04T00:22:39.553Z,8.10
2023-01-04T00:25:09.243Z,8.10
2023-01-04T00:27:38.065Z,8.10
2023-01-04T00:30:07.764Z,8.10
2023-01-04T00:32:36.597Z,8.10
2023-01-04T00:35:07.644Z,8.00
2023-01-04T00:37:36.645Z,8.10
2023-01-04T00:40:09.350Z,8.10
2023-01-04T00:42:38.138Z,8.10
2023-01-04T00:45:07.985Z,8.10
2023-01-04T00:47:36.619Z,8.10
2023-01-04T00:50:07.725Z,8.10
2023-01-04T00:52:36.572Z,8.10
2023-01-04T00:55:05.650Z,8.10
2023-01-04T00:57:37.145Z,8.10
2023-01-04T01:00:06.980Z,8.10
2023-01-04T01:02:35.923Z,8.10
2023-01-04T01:05:12.049Z,8.10
2023-01-04T01:07:40.792Z,8.20
2023-01-04T01:10:10.093Z,8.20
2023-01-04T01:12:38.832Z,8.20
2023-01-04T01:15:08.627Z,8.20
2023-01-04T01:17:37.480Z,8.20
2023-01-04T01:20:07.072Z,8.20
2023-01-04T01:22:38.120Z,8.20
2023-01-04T01:25:07.850Z,8.20
2023-01-04T01:27:36.541Z,8.30
2023-01-04T01:30:06.482Z,8.30
2023-01-04T01:32:35.132Z,8.30
2023-01-04T01:35:05.117Z,8.30
2023-01-04T01:37:37.991Z,8.30
2023-01-04T01:40:07.833Z,8.30
2023-01-04T01:42:36.710Z,8.40
2023-01-04T01:45:23.238Z,8.40
2023-01-04T01:47:52.595Z,8.40
2023-01-04T01:50:26.329Z,8.40
2023-01-04T01:52:58.710Z,8.50
2023-01-04T01:55:29.804Z,8.50
2023-01-04T01:57:59.836Z,8.50
2023-01-04T02:00:29.458Z,8.50
2023-01-04T02:03:11.041Z,8.60
2023-01-04T02:05:40.527Z,8.60
2023-01-04T02:08:12.912Z,8.60
2023-01-04T02:10:41.655Z,8.60
2023-01-04T02:13:13.608Z,8.60
2023-01-04T02:15:58.979Z,8.60
2023-01-04T02:18:37.062Z,8.70
2023-01-04T02:21:10.926Z,8.70
2023-01-04T02:24:14.100Z,8.70
2023-01-04T02:27:17.332Z,8.80
2023-01-04T02:30:19.613Z,8.80
2023-01-04T02:33:00.827Z,8.80
2023-01-04T02:35:34.776Z,8.80
2023-01-04T02:38:14.574Z,8.90
2023-01-04T02:40:52.537Z,8.90
2023-01-04T02:43:45.556Z,8.90
2023-01-04T02:46:19.655Z,9.00
2023-01-04T02:49:08.388Z,9.00
2023-01-04T02:51:38.881Z,9.00
2023-01-04T02:54:11.778Z,9.10
2023-01-04T02:56:58.388Z,9.10
2023-01-04T02:59:47.364Z,9.10
2023-01-04T03:02:53.404Z,9.10
2023-01-04T03:05:53.360Z,9.20
2023-01-04T03:08:31.586Z,9.20
2023-01-04T03:11:04.106Z,9.20
2023-01-04T03:13:37.956Z,9.30
2023-01-04T03:16:12.395Z,9.30
2023-01-04T03:18:48.390Z,9.30
2023-01-04T03:21:26.226Z,9.30
2023-01-04T03:24:17.326Z,9.30
2023-01-04T03:27:09.072Z,9.30
2023-01-04T03:30:02.305Z,9.40
2023-01-04T03:32:59.003Z,9.40
2023-01-04T03:35:38.899Z,9.40
2023-01-04T03:38:30.597Z,9.40
2023-01-04T03:41:20.613Z,9.40
2023-01-04T03:44:14.843Z,9.40
2023-01-04T03:47:06.528Z,9.40
2023-01-04T03:49:41.726Z,9.40
2023-01-04T03:52:12.390Z,9.50
2023-01-04T03:54:45.297Z,9.50
2023-01-04T03:57:16.068Z,9.50
2023-01-04T03:59:50.611Z,9.50
2023-01-04T04:02:25.388Z,9.50
2023-01-04T04:05:13.746Z,9.60
2023-01-04T04:08:01.544Z,9.50
2023-01-04T04:10:31.802Z,9.60
2023-01-04T04:13:03.016Z,9.60
2023-01-04T04:15:31.778Z,9.70
2023-01-04T04:18:00.545Z,9.70
2023-01-04T04:20:29.288Z,9.70
2023-01-04T04:22:58.294Z,9.70
2023-01-04T04:25:28.379Z,9.80
2023-01-04T04:28:01.674Z,9.80
2023-01-04T04:30:32.116Z,9.80
2023-01-04T04:33:01.052Z,9.80
2023-01-04T04:35:33.920Z,9.90
2023-01-04T04:38:06.905Z,9.90
2023-01-04T04:40:53.491Z,9.90
2023-01-04T04:43:23.713Z,9.90
2023-01-04T04:45:55.048Z,10.00
2023-01-04T04:48:24.014Z,10.00
2023-01-04T04:50:52.842Z,10.00
2023-01-04T04:53:22.847Z,10.10
2023-01-04T04:55:54.576Z,10.10
2023-01-04T04:58:24.731Z,10.20
2023-01-04T05:00:53.481Z,10.20
2023-01-04T05:03:25.091Z,10.20
2023-01-04T05:05:55.772Z,10.30
2023-01-04T05:08:26.325Z,10.30
2023-01-04T05:10:55.547Z,10.30
2023-01-04T05:13:24.643Z,10.40
2023-01-04T05:15:55.309Z,10.40
2023-01-04T05:18:24.726Z,10.40
2023-01-04T05:20:55.985Z,10.40
2023-01-04T05:23:25.172Z,10.40
2023-01-04T05:25:57.326Z,10.40
2023-01-04T05:28:27.551Z,10.40
2023-01-04T05:30:55.925Z,10.40
2023-01-04T05:33:26.139Z,10.40
2023-01-04T05:35:55.977Z,10.40
2023-01-04T05:38:25.077Z,10.40
2023-01-04T05:40:54.833Z,10.40
2023-01-04T05:43:24.572Z,10.40
2023-01-04T05:45:56.885Z,10.30
2023-01-04T05:48:29.457Z,10.40
2023-01-04T05:50:58.263Z,10.30
2023-01-04T05:53:27.011Z,10.40
2023-01-04T05:55:55.996Z,10.40
2023-01-04T05:58:24.609Z,10.40
2023-01-04T06:00:55.710Z,10.40
2023-01-04T06:03:27.282Z,10.40
2023-01-04T06:05:56.567Z,10.40
2023-01-04T06:08:25.666Z,10.40
2023-01-04T06:10:55.345Z,10.40
2023-01-04T06:13:24.249Z,10.40
2023-01-04T06:15:54.464Z,10.50
2023-01-04T06:18:23.173Z,10.50
2023-01-04T06:20:52.709Z,10.50
2023-01-04T06:23:21.747Z,10.50
2023-01-04T06:25:50.678Z,10.50
2023-01-04T06:28:19.502Z,10.50
2023-01-04T06:30:48.657Z,10.50
2023-01-04T06:33:18.968Z,10.60
2023-01-04T06:35:55.269Z,10.60
2023-01-04T06:38:24.348Z,10.60
2023-01-04T06:40:55.516Z,10.50
2023-01-04T06:43:26.528Z,10.50
2023-01-04T06:45:55.560Z,10.60
2023-01-04T06:48:25.751Z,10.60
2023-01-04T06:50:54.631Z,10.60
2023-01-04T06:53:23.457Z,10.60
2023-01-04T06:55:52.314Z,10.60
2023-01-04T06:58:21.225Z,10.70
2023-01-04T07:00:53.139Z,10.70
2023-01-04T07:03:22.145Z,10.70
2023-01-04T07:05:52.264Z,10.80
2023-01-04T07:08:21.123Z,10.80
2023-01-04T07:10:50.059Z,10.80
2023-01-04T07:13:22.000Z,10.90
2023-01-04T07:15:51.180Z,10.80
2023-01-04T07:18:20.054Z,10.90
2023-01-04T07:20:48.884Z,10.90
2023-01-04T07:23:18.984Z,10.80
2023-01-04T07:25:47.908Z,10.90
2023-01-04T07:28:37.970Z,10.90
2023-01-04T07:31:08.193Z,10.90
2023-01-04T07:33:37.162Z,10.90
2023-01-04T07:36:09.611Z,10.90
2023-01-04T07:38:40.032Z,10.90
2023-01-04T07:41:09.277Z,10.90
2023-01-04T07:43:38.218Z,10.90
2023-01-04T07:46:07.393Z,10.90
2023-01-04T07:48:36.198Z,11.00
2023-01-04T07:51:05.199Z,11.00
2023-01-04T07:53:36.556Z,11.00
2023-01-04T07:56:15.135Z,11.00
2023-01-04T07:58:47.176Z,11.00
2023-01-04T08:01:17.396Z,11.00
2023-01-04T08:03:50.297Z,11.00
2023-01-04T08:06:20.691Z,11.00
2023-01-04T08:08:49.824Z,10.90
2023-01-04T08:11:23.405Z,10.90
2023-01-04T08:13:52.571Z,10.90
2023-01-04T08:16:24.438Z,10.90
2023-01-04T08:18:58.047Z,10.90
2023-01-04T08:21:27.708Z,10.90
2023-01-04T08:23:56.665Z,10.90
2023-01-04T08:26:27.324Z,10.90
2023-01-04T08:28:56.733Z,10.90
2023-01-04T08:31:27.580Z,11.00
2023-01-04T08:33:57.584Z,11.00
2023-01-04T08:36:28.946Z,11.00
2023-01-04T08:39:01.351Z,10.90
2023-01-04T08:41:57.320Z,11.00
2023-01-04T08:44:22.801Z,11.00
2023-01-04T08:46:53.060Z,11.10
2023-01-04T08:49:23.792Z,11.10
2023-01-04T08:51:52.564Z,11.10
2023-01-04T08:54:22.840Z,11.10
2023-01-04T08:56:52.960Z,11.10
2023-01-04T08:59:21.768Z,11.10
2023-01-04T09:01:50.789Z,11.20
2023-01-04T09:04:19.783Z,11.20
2023-01-04T09:06:48.651Z,11.20
2023-01-04T09:09:17.661Z,11.20
2023-01-04T09:11:46.402Z,11.20
2023-01-04T09:14:16.571Z,11.20
2023-01-04T09:16:45.439Z,11.30
2023-01-04T09:19:21.392Z,11.30
2023-01-04T09:21:50.997Z,11.30
2023-01-04T09:24:19.734Z,11.30
2023-01-04T09:26:48.451Z,11.30
2023-01-04T09:29:18.640Z,11.40
2023-01-04T09:31:47.944Z,11.40
2023-01-04T09:34:17.899Z,11.40
2023-01-04T09:36:48.392Z,11.50
2023-01-04T09:39:23.515Z,11.50
2023-01-04T09:41:58.360Z,11.50
2023-01-04T09:47:40.023Z,11.50
2023-01-04T09:50:15.370Z,11.50
2023-01-04T09:52:58.002Z,11.50
2023-01-04T09:55:38.139Z,11.50
2023-01-04T09:58:23.420Z,11.50
2023-01-04T10:01:01.792Z,11.50
2023-01-04T10:03:33.567Z,11.60
2023-01-04T10:06:03.676Z,11.50
2023-01-04T10:08:32.637Z,11.60
2023-01-04T10:11:17.234Z,11.60
2023-01-04T10:14:00.869Z,11.60
2023-01-04T10:17:12.120Z,11.60
2023-01-04T10:22:47.102Z,11.60
2023-01-04T10:25:27.856Z,11.60
2023-01-04T10:28:11.758Z,11.60
2023-01-04T10:30:47.601Z,11.60
2023-01-04T10:33:24.418Z,11.70
2023-01-04T10:35:53.843Z,11.70
2023-01-04T10:38:28.740Z,11.70
2023-01-04T10:41:01.247Z,11.70
2023-01-04T10:44:10.621Z,11.70
2023-01-04T10:46:31.161Z,11.80
2023-01-04T10:49:11.231Z,11.80
2023-01-04T10:51:46.164Z,11.70
2023-01-04T10:54:23.230Z,11.70
2023-01-04T10:57:02.308Z,11.80
2023-01-04T10:59:39.927Z,11.80
2023-01-04T11:02:18.051Z,11.80
2023-01-04T11:04:54.075Z,11.80
2023-01-04T11:07:27.918Z,11.80
2023-01-04T11:10:02.426Z,11.90
2023-01-04T11:12:31.181Z,11.90
2023-01-04T11:14:59.941Z,11.90
2023-01-04T11:17:29.694Z,11.90
2023-01-04T11:19:59.994Z,11.80
2023-01-04T11:22:35.531Z,11.90
2023-01-04T11:25:34.463Z,11.80
2023-01-04T11:28:00.271Z,11.90
2023-01-04T11:30:38.911Z,11.90
2023-01-04T11:33:16.912Z,11.90
2023-01-04T11:35:49.535Z,11.90
2023-01-04T11:38:20.716Z,12.00
2023-01-04T11:41:01.187Z,12.00
2023-01-04T11:43:31.413Z,12.00
2023-01-04T11:46:03.904Z,12.00
2023-01-04T11:48:38.781Z,12.00
2023-01-04T11:51:19.406Z,12.00
2023-01-04T11:53:57.681Z,12.00
2023-01-04T11:56:29.342Z,12.00
2023-01-04T11:59:20.958Z,12.00
2023-01-04T12:02:16.396Z,12.00
2023-01-04T12:04:53.801Z,11.90
2023-01-04T12:07:31.916Z,11.90
2023-01-04T12:10:02.358Z,12.00
2023-01-04T12:12:33.191Z,12.10
2023-01-04T12:15:07.024Z,12.00
2023-01-04T12:17:44.153Z,12.10
2023-01-04T12:20:19.646Z,12.20
2023-01-04T12:22:50.039Z,12.20
2023-01-04T12:25:29.649Z,12.30
2023-01-04T12:27:58.366Z,12.30
2023-01-04T12:30:44.347Z,12.40
2023-01-04T12:33:41.129Z,12.40
2023-01-04T12:36:11.705Z,12.30
2023-01-04T12:39:19.889Z,12.30
2023-01-04T12:42:27.175Z,12.40
2023-01-04T12:45:14.062Z,12.40
2023-01-04T12:48:05.344Z,12.40
2023-01-04T12:51:13.214Z,12.40
2023-01-04T12:53:53.636Z,12.40
2023-01-04T12:56:22.256Z,12.40
2023-01-04T12:59:26.498Z,12.40
2023-01-04T13:02:19.828Z,12.40
2023-01-04T13:04:49.277Z,12.50
2023-01-04T13:07:23.788Z,12.50
2023-01-04T13:09:59.771Z,12.50
2023-01-04T13:12:57.483Z,12.40
2023-01-04T13:15:41.863Z,12.50
2023-01-04T13:18:33.547Z,12.50
2023-01-04T13:21:04.344Z,12.50
2023-01-04T13:23:35.127Z,12.50
2023-01-04T13:26:35.911Z,12.50
2023-01-04T13:29:18.985Z,12.50
2023-01-04T13:31:51.973Z,12.60
2023-01-04T13:34:27.743Z,12.60
2023-01-04T13:37:21.683Z,12.70
2023-01-04T13:39:52.955Z,12.70
2023-01-04T13:42:27.979Z,12.70
2023-01-04T13:45:23.616Z,12.70
2023-01-04T13:47:56.723Z,12.70
2023-01-04T13:50:36.564Z,12.70
2023-01-04T13:53:08.428Z,12.70
2023-01-04T13:55:39.185Z,12.70
2023-01-04T13:58:17.104Z,12.70
2023-01-04T14:00:47.504Z,12.70
2023-01-04T14:03:30.880Z,12.70
2023-01-04T14:06:14.395Z,12.70
2023-01-04T14:08:47.515Z,12.70
2023-01-04T14:11:36.514Z,12.60
2023-01-04T14:14:16.577Z,12.60
2023-01-04T14:16:45.267Z,12.60
2023-01-04T14:19:43.683Z,12.60
2023-01-04T14:22:35.701Z,12.60
2023-01-04T14:25:33.812Z,12.60
2023-01-04T14:28:28.330Z,12.60
2023-01-04T14:31:12.690Z,12.50
2023-01-04T14:33:44.613Z,12.50
2023-01-04T14:36:16.503Z,12.50
2023-01-04T14:38:52.700Z,12.40
2023-01-04T14:41:24.067Z,12.40
2023-01-04T14:43:54.598Z,12.40
2023-01-04T14:46:24.172Z,12.40
2023-01-04T14:48:53.129Z,12.40
2023-01-04T14:51:25.353Z,12.50
2023-01-04T14:53:55.574Z,12.50
2023-01-04T14:56:24.206Z,12.40
2023-01-04T14:58:52.854Z,12.40
2023-01-04T15:01:21.835Z,12.40
2023-01-04T15:03:50.998Z,12.30
2023-01-04T15:06:20.176Z,12.30
2023-01-04T15:08:52.643Z,12.20
2023-01-04T15:11:22.622Z,12.20
2023-01-04T15:13:51.491Z,12.10
2023-01-04T15:16:20.563Z,12.10
2023-01-04T15:18:49.261Z,12.00
2023-01-04T15:21:17.864Z,11.90
2023-01-04T15:23:46.526Z,11.90
2023-01-04T15:26:15.800Z,11.80
2023-01-04T15:28:45.928Z,11.90
2023-01-04T15:31:15.863Z,11.90
2023-01-04T15:33:44.503Z,11.90
2023-01-04T15:36:19.973Z,11.90
2023-01-04T15:38:55.380Z,11.90
2023-01-04T15:41:38.017Z,11.90
2023-01-04T15:44:11.366Z,11.90
2023-01-04T15:46:40.825Z,11.90
2023-01-04T15:49:14.959Z,11.90
2023-01-04T15:51:45.821Z,11.90
2023-01-04T15:54:14.952Z,11.90
2023-01-04T15:56:43.587Z,12.00
2023-01-04T15:59:13.789Z,11.90
2023-01-04T16:01:43.288Z,11.90
2023-01-04T16:04:12.636Z,11.90
2023-01-04T16:06:41.605Z,11.90
2023-01-04T16:09:10.644Z,11.90
2023-01-04T16:12:00.046Z,11.90
2023-01-04T16:14:30.145Z,11.90
2023-01-04T16:16:58.816Z,11.90
2023-01-04T16:19:27.656Z,11.80
2023-01-04T16:21:56.458Z,11.80
2023-01-04T16:27:14.029Z,11.80
2023-01-04T16:29:44.152Z,11.80
2023-01-04T16:32:12.808Z,11.90
2023-01-04T16:34:41.415Z,11.80
2023-01-04T16:37:10.247Z,11.90
2023-01-04T16:42:27.791Z,11.80
2023-01-04T16:44:57.812Z,11.80
2023-01-04T16:47:26.499Z,11.80
2023-01-04T16:49:55.316Z,11.80
2023-01-04T16:52:27.306Z,11.80
2023-01-04T16:54:56.054Z,11.70
2023-01-04T16:57:24.767Z,11.80
2023-01-04T16:59:53.391Z,11.80
2023-01-04T17:02:24.153Z,11.80
2023-01-04T17:04:57.020Z,11.80
2023-01-04T17:07:27.409Z,11.80
2023-01-04T17:09:56.115Z,11.80
2023-01-04T17:18:03.275Z,11.80
2023-01-04T17:20:32.034Z,11.70
2023-01-04T17:23:00.665Z,11.70
2023-01-04T17:25:30.216Z,11.70
2023-01-04T17:27:58.859Z,11.70
2023-01-04T17:30:27.495Z,11.70
2023-01-04T17:32:56.067Z,11.70
2023-01-04T17:35:26.047Z,11.70
2023-01-04T17:37:54.805Z,11.70
2023-01-04T17:40:23.800Z,11.60
2023-01-04T17:42:52.930Z,11.70
2023-01-04T17:45:22.236Z,11.70
2023-01-04T17:47:51.241Z,11.70
2023-01-04T17:50:20.537Z,11.70
2023-01-04T17:52:51.784Z,11.70
2023-01-04T17:55:21.003Z,11.70
2023-01-04T17:57:49.679Z,11.60
2023-01-04T18:00:18.837Z,11.70
2023-01-04T18:02:47.528Z,11.60
2023-01-04T18:05:16.384Z,11.70
2023-01-04T18:07:45.154Z,11.70
2023-01-04T18:10:26.834Z,11.70
2023-01-04T18:13:01.870Z,11.70
2023-01-04T18:15:30.501Z,11.70
2023-01-04T18:17:59.091Z,11.70
2023-01-04T18:20:27.991Z,11.80
2023-01-04T18:22:56.871Z,11.80
2023-01-04T18:25:27.022Z,11.70
2023-01-04T18:27:55.881Z,11.70
2023-01-04T18:30:24.594Z,11.60
2023-01-04T18:32:53.379Z,11.50
2023-01-04T18:35:22.047Z,11.40
2023-01-04T18:37:50.959Z,11.40
2023-01-04T18:40:20.133Z,11.40
2023-01-04T18:42:51.036Z,11.40
2023-01-04T18:45:20.308Z,11.30
2023-01-04T18:47:49.071Z,11.30
2023-01-04T18:50:18.619Z,11.30
2023-01-04T18:52:47.472Z,11.30
2023-01-04T18:55:16.216Z,11.40
2023-01-04T18:57:44.968Z,11.40
2023-01-04T19:00:16.024Z,11.50
2023-01-04T19:02:44.866Z,11.40
2023-01-04T19:05:13.629Z,11.50
2023-01-04T19:07:45.698Z,11.40
2023-01-04T19:10:14.552Z,11.40
2023-01-04T19:12:43.896Z,11.40
2023-01-04T19:15:17.018Z,11.40
2023-01-04T19:17:45.839Z,11.40
2023-01-04T19:20:14.562Z,11.40
2023-01-04T19:22:43.434Z,11.30
2023-01-04T19:25:15.288Z,11.30
2023-01-04T19:27:44.130Z,11.30
2023-01-04T19:30:14.319Z,11.20
2023-01-04T19:32:44.502Z,11.20
2023-01-04T19:35:13.638Z,11.20
2023-01-04T19:37:43.040Z,11.20
2023-01-04T19:40:12.600Z,11.10
2023-01-04T19:42:43.367Z,11.20
2023-01-04T19:45:13.130Z,11.20
2023-01-04T19:47:43.553Z,11.10
2023-01-04T19:50:12.963Z,11.10
2023-01-04T19:52:41.809Z,11.10
2023-01-04T19:55:11.096Z,11.10
2023-01-04T19:57:39.884Z,11.00
2023-01-04T20:00:10.146Z,11.00
2023-01-04T20:02:39.096Z,11.00
2023-01-04T20:05:09.808Z,11.00
2023-01-04T20:07:38.669Z,11.00
2023-01-04T20:10:13.945Z,11.00
2023-01-04T20:12:43.144Z,11.00
2023-01-04T20:15:13.463Z,11.10
2023-01-04T20:17:42.292Z,11.10
2023-01-04T20:20:13.103Z,11.20
2023-01-04T20:22:42.968Z,11.20
2023-01-04T20:25:11.896Z,11.10
2023-01-04T20:27:40.774Z,11.10
2023-01-04T20:30:11.023Z,11.00
2023-01-04T20:32:39.935Z,11.00
2023-01-04T20:35:09.243Z,11.00
2023-01-04T20:37:39.858Z,11.00
2023-01-04T20:40:10.296Z,10.90
2023-01-04T20:42:56.083Z,10.90
2023-01-04T20:45:26.867Z,10.90
2023-01-04T20:47:55.828Z,11.00
2023-01-04T20:50:24.665Z,10.90
2023-01-04T20:52:54.764Z,10.90
2023-01-04T20:55:23.510Z,11.00
2023-01-04T20:57:52.259Z,11.00
2023-01-04T21:00:21.099Z,10.90
2023-01-04T21:02:50.026Z,11.00
2023-01-04T21:05:19.021Z,11.00
2023-01-04T21:07:47.924Z,11.00
2023-01-04T21:10:18.220Z,11.00
2023-01-04T21:12:46.935Z,11.00
2023-01-04T21:15:18.855Z,10.90
2023-01-04T21:17:47.838Z,10.90
2023-01-04T21:20:16.901Z,10.90
2023-01-04T21:22:45.984Z,10.90
2023-01-04T21:25:15.173Z,10.90
2023-01-04T21:27:45.505Z,11.00
2023-01-04T21:30:15.019Z,11.10
2023-01-04T21:32:43.977Z,11.00
2023-01-04T21:35:15.487Z,11.00
2023-01-04T21:37:44.286Z,11.10
2023-01-04T21:40:14.021Z,11.00
2023-01-04T21:42:44.264Z,11.00
2023-01-04T21:45:13.180Z,11.00
2023-01-04T21:47:41.894Z,11.00
2023-01-04T21:50:16.789Z,11.00
2023-01-04T21:52:46.090Z,11.00
2023-01-04T21:55:14.795Z,10.90
2023-01-04T21:57:45.013Z,11.00
2023-01-04T22:00:14.266Z,11.00
2023-01-04T22:02:45.916Z,11.00
2023-01-04T22:05:18.002Z,11.00
2023-01-04T22:07:46.598Z,11.00
2023-01-04T22:10:15.425Z,11.00
2023-01-04T22:12:47.943Z,11.20
2023-01-04T22:15:16.832Z,11.10
2023-01-04T22:17:48.607Z,11.10
2023-01-04T22:20:17.435Z,11.10
2023-01-04T22:22:46.123Z,11.20
2023-01-04T22:25:14.999Z,11.20
2023-01-04T22:27:45.615Z,11.20
2023-01-04T22:30:15.074Z,11.20
2023-01-04T22:32:43.954Z,11.20
2023-01-04T22:35:12.814Z,11.30
2023-01-04T22:37:41.506Z,11.20
2023-01-04T22:40:11.247Z,11.30
2023-01-04T22:42:39.913Z,11.30
2023-01-04T22:45:13.503Z,11.20
2023-01-04T22:47:42.819Z,11.20
2023-01-04T22:50:12.483Z,11.30
2023-01-04T22:52:43.613Z,11.30
2023-01-04T22:55:16.263Z,11.20
2023-01-04T22:57:45.195Z,11.20
2023-01-04T23:00:18.545Z,11.20
2023-01-04T23:02:47.395Z,11.20
2023-01-04T23:05:16.155Z,11.20
2023-01-04T23:07:45.097Z,11.20
2023-01-04T23:10:13.921Z,11.10
2023-01-04T23:12:42.753Z,11.10
2023-01-04T23:15:12.298Z,11.10
2023-01-04T23:17:42.342Z,11.20
2023-01-04T23:20:13.784Z,11.30
2023-01-04T23:22:45.985Z,11.20
2023-01-04T23:25:17.405Z,11.20
2023-01-04T23:27:46.091Z,11.20
2023-01-04T23:30:16.282Z,11.00
2023-01-04T23:32:46.371Z,10.80
2023-01-04T23:35:17.857Z,10.70
2023-01-04T23:37:46.562Z,10.70
2023-01-04T23:40:18.079Z,10.60
2023-01-04T23:42:46.721Z,10.70
2023-01-04T23:45:16.569Z,10.70
2023-01-04T23:47:49.623Z,10.70
2023-01-04T23:50:18.429Z,10.80
2023-01-04T23:52:47.121Z,10.80
2023-01-04T23:55:16.009Z,10.80
2023-01-04T23:57:47.822Z,10.80
